sensor_id;sensor_type;location;lat;lon;timestamp;pressure;altitude;pressure_sealevel;temperature;humidity
81057;BME280;70563;50.084;14.468;2023-07-29T00:02:16;98148.88;;;18.71;73.42
81057;BME280;70563;50.084;14.468;2023-07-29T00:04:41;98146.25;;;18.76;73.38
81057;BME280;70563;50.084;14.468;2023-07-29T00:07:07;98149.50;;;18.78;73.25
81057;BME280;70563;50.084;14.468;2023-07-29T00:09:32;98151.53;;;18.93;72.81
81057;BME280;70563;50.084;14.468;2023-07-29T00:11:57;98155.13;;;19.04;72.25
81057;BME280;70563;50.084;14.468;2023-07-29T00:14:23;98154.59;;;19.02;72.40
81057;BME280;70563;50.084;14.468;2023-07-29T00:16:48;98150.03;;;19.02;72.85
81057;BME280;70563;50.084;14.468;2023-07-29T00:19:14;98145.19;;;18.99;72.59
81057;BME280;70563;50.084;14.468;2023-07-29T00:21:39;98143.03;;;18.96;73.13
81057;BME280;70563;50.084;14.468;2023-07-29T00:24:06;98152.84;;;18.91;73.20
81057;BME280;70563;50.084;14.468;2023-07-29T00:26:31;98145.03;;;18.84;73.45
81057;BME280;70563;50.084;14.468;2023-07-29T00:28:57;98149.88;;;18.87;73.48
81057;BME280;70563;50.084;14.468;2023-07-29T00:31:23;98150.63;;;18.83;73.51
81057;BME280;70563;50.084;14.468;2023-07-29T00:33:48;98141.53;;;18.84;74.24
81057;BME280;70563;50.084;14.468;2023-07-29T00:36:13;98143.91;;;18.80;74.19
81057;BME280;70563;50.084;14.468;2023-07-29T00:38:39;98144.97;;;18.79;74.32
81057;BME280;70563;50.084;14.468;2023-07-29T00:41:05;98143.28;;;18.73;74.60
81057;BME280;70563;50.084;14.468;2023-07-29T00:43:32;98139.78;;;18.72;74.49
81057;BME280;70563;50.084;14.468;2023-07-29T00:45:57;98135.97;;;18.68;74.79
81057;BME280;70563;50.084;14.468;2023-07-29T00:48:24;98129.09;;;18.72;74.65
81057;BME280;70563;50.084;14.468;2023-07-29T00:50:49;98136.88;;;18.74;74.80
81057;BME280;70563;50.084;14.468;2023-07-29T00:53:15;98136.78;;;18.69;74.79
81057;BME280;70563;50.084;14.468;2023-07-29T00:55:41;98136.97;;;18.62;75.05
81057;BME280;70563;50.084;14.468;2023-07-29T00:58:07;98140.13;;;18.59;75.19
81057;BME280;70563;50.084;14.468;2023-07-29T01:00:32;98134.53;;;18.61;75.36
81057;BME280;70563;50.084;14.468;2023-07-29T01:02:57;98139.16;;;18.65;75.22
81057;BME280;70563;50.084;14.468;2023-07-29T01:05:27;98142.81;;;18.59;75.20
81057;BME280;70563;50.084;14.468;2023-07-29T01:08:08;98152.53;;;18.65;75.46
81057;BME280;70563;50.084;14.468;2023-07-29T01:10:58;98145.63;;;18.69;75.29
81057;BME280;70563;50.084;14.468;2023-07-29T01:16:55;98155.69;;;18.62;76.01
81057;BME280;70563;50.084;14.468;2023-07-29T01:22:07;98151.69;;;18.65;75.80
81057;BME280;70563;50.084;14.468;2023-07-29T01:24:32;98141.75;;;18.60;76.01
81057;BME280;70563;50.084;14.468;2023-07-29T01:26:58;98150.28;;;18.57;76.16
81057;BME280;70563;50.084;14.468;2023-07-29T01:29:23;98143.25;;;18.51;76.35
81057;BME280;70563;50.084;14.468;2023-07-29T01:31:54;98149.25;;;18.41;77.09
81057;BME280;70563;50.084;14.468;2023-07-29T01:34:36;98139.38;;;18.42;77.02
81057;BME280;70563;50.084;14.468;2023-07-29T01:37:06;98136.06;;;18.35;77.32
81057;BME280;70563;50.084;14.468;2023-07-29T01:39:35;98146.13;;;18.27;77.73
81057;BME280;70563;50.084;14.468;2023-07-29T01:42:02;98140.72;;;18.22;77.91
81057;BME280;70563;50.084;14.468;2023-07-29T01:44:27;98142.34;;;18.23;77.79
81057;BME280;70563;50.084;14.468;2023-07-29T01:46:55;98140.09;;;18.15;78.41
81057;BME280;70563;50.084;14.468;2023-07-29T01:49:21;98143.78;;;18.31;77.73
81057;BME280;70563;50.084;14.468;2023-07-29T01:51:46;98142.72;;;18.32;77.72
81057;BME280;70563;50.084;14.468;2023-07-29T01:54:11;98142.94;;;18.30;77.49
81057;BME280;70563;50.084;14.468;2023-07-29T01:56:37;98137.31;;;18.27;77.53
81057;BME280;70563;50.084;14.468;2023-07-29T01:59:02;98141.28;;;18.24;78.00
81057;BME280;70563;50.084;14.468;2023-07-29T02:01:27;98146.13;;;18.27;77.76
81057;BME280;70563;50.084;14.468;2023-07-29T02:03:53;98146.63;;;18.24;77.92
81057;BME280;70563;50.084;14.468;2023-07-29T02:06:21;98148.22;;;18.25;78.20
81057;BME280;70563;50.084;14.468;2023-07-29T02:08:46;98145.16;;;18.17;78.39
81057;BME280;70563;50.084;14.468;2023-07-29T02:11:12;98151.25;;;18.12;78.42
81057;BME280;70563;50.084;14.468;2023-07-29T02:13:37;98146.16;;;18.11;78.57
81057;BME280;70563;50.084;14.468;2023-07-29T02:16:02;98150.13;;;18.08;79.20
81057;BME280;70563;50.084;14.468;2023-07-29T02:18:28;98147.78;;;18.12;79.09
81057;BME280;70563;50.084;14.468;2023-07-29T02:20:53;98138.88;;;18.06;78.88
81057;BME280;70563;50.084;14.468;2023-07-29T02:23:18;98144.56;;;18.10;79.14
81057;BME280;70563;50.084;14.468;2023-07-29T02:25:44;98139.94;;;18.05;79.08
81057;BME280;70563;50.084;14.468;2023-07-29T02:28:09;98138.88;;;18.06;78.70
81057;BME280;70563;50.084;14.468;2023-07-29T02:30:35;98142.16;;;18.13;78.67
81057;BME280;70563;50.084;14.468;2023-07-29T02:33:00;98142.16;;;18.13;78.52
81057;BME280;70563;50.084;14.468;2023-07-29T02:35:27;98141.06;;;18.09;78.75
81057;BME280;70563;50.084;14.468;2023-07-29T02:37:52;98137.00;;;18.07;78.60
81057;BME280;70563;50.084;14.468;2023-07-29T02:40:17;98135.72;;;18.09;78.09
81057;BME280;70563;50.084;14.468;2023-07-29T02:42:43;98137.56;;;18.09;78.19
81057;BME280;70563;50.084;14.468;2023-07-29T02:45:08;98133.75;;;18.04;78.18
81057;BME280;70563;50.084;14.468;2023-07-29T02:47:36;98135.22;;;18.12;78.16
81057;BME280;70563;50.084;14.468;2023-07-29T02:50:02;98131.69;;;18.07;78.31
81057;BME280;70563;50.084;14.468;2023-07-29T02:52:27;98131.34;;;18.03;78.40
81057;BME280;70563;50.084;14.468;2023-07-29T02:54:53;98134.91;;;18.09;78.18
81057;BME280;70563;50.084;14.468;2023-07-29T02:57:18;98135.22;;;18.12;77.96
81057;BME280;70563;50.084;14.468;2023-07-29T02:59:43;98144.84;;;18.13;77.80
81057;BME280;70563;50.084;14.468;2023-07-29T03:02:09;98142.44;;;18.12;77.47
81057;BME280;70563;50.084;14.468;2023-07-29T03:04:34;98138.63;;;18.08;78.00
81057;BME280;70563;50.084;14.468;2023-07-29T03:06:59;98148.66;;;18.17;77.45
81057;BME280;70563;50.084;14.468;2023-07-29T03:09:25;98150.03;;;18.20;77.27
81057;BME280;70563;50.084;14.468;2023-07-29T03:11:50;98159.34;;;18.17;77.77
81057;BME280;70563;50.084;14.468;2023-07-29T03:14:17;98157.97;;;18.15;77.42
81057;BME280;70563;50.084;14.468;2023-07-29T03:16:43;98161.78;;;18.19;77.29
81057;BME280;70563;50.084;14.468;2023-07-29T03:19:08;98165.81;;;18.21;77.10
81057;BME280;70563;50.084;14.468;2023-07-29T03:21:34;98163.94;;;18.22;76.79
81057;BME280;70563;50.084;14.468;2023-07-29T03:23:59;98169.53;;;18.20;77.07
81057;BME280;70563;50.084;14.468;2023-07-29T03:26:25;98165.19;;;18.14;77.33
81057;BME280;70563;50.084;14.468;2023-07-29T03:28:50;98162.44;;;18.09;77.85
81057;BME280;70563;50.084;14.468;2023-07-29T03:31:16;98170.69;;;18.08;77.77
81057;BME280;70563;50.084;14.468;2023-07-29T03:33:41;98171.66;;;18.18;77.10
81057;BME280;70563;50.084;14.468;2023-07-29T03:36:07;98166.81;;;18.15;77.70
81057;BME280;70563;50.084;14.468;2023-07-29T03:38:32;98162.44;;;18.09;77.51
81057;BME280;70563;50.084;14.468;2023-07-29T03:41:05;98165.34;;;18.08;77.72
81057;BME280;70563;50.084;14.468;2023-07-29T03:43:30;98156.28;;;18.09;77.68
81057;BME280;70563;50.084;14.468;2023-07-29T03:45:55;98160.00;;;18.08;78.08
81057;BME280;70563;50.084;14.468;2023-07-29T03:48:21;98155.38;;;18.20;77.40
81057;BME280;70563;50.084;14.468;2023-07-29T03:50:46;98149.91;;;18.10;78.02
81057;BME280;70563;50.084;14.468;2023-07-29T03:53:11;98151.25;;;18.12;77.56
81057;BME280;70563;50.084;14.468;2023-07-29T03:55:37;98147.69;;;18.07;77.70
81057;BME280;70563;50.084;14.468;2023-07-29T03:58:02;98152.88;;;18.13;77.96
81057;BME280;70563;50.084;14.468;2023-07-29T04:00:28;98153.53;;;18.03;78.47
81057;BME280;70563;50.084;14.468;2023-07-29T04:02:53;98150.38;;;18.07;78.06
81057;BME280;70563;50.084;14.468;2023-07-29T04:05:19;98152.41;;;17.99;78.60
81057;BME280;70563;50.084;14.468;2023-07-29T04:07:44;98153.78;;;18.02;78.41
81057;BME280;70563;50.084;14.468;2023-07-29T04:10:10;98154.81;;;18.18;77.76
81057;BME280;70563;50.084;14.468;2023-07-29T04:12:36;98161.84;;;18.24;77.65
81057;BME280;70563;50.084;14.468;2023-07-29T04:15:01;98160.22;;;18.40;76.82
81057;BME280;70563;50.084;14.468;2023-07-29T04:17:27;98168.09;;;18.51;76.31
81057;BME280;70563;50.084;14.468;2023-07-29T04:19:52;98168.03;;;18.46;76.68
81057;BME280;70563;50.084;14.468;2023-07-29T04:22:17;98166.09;;;18.42;76.90
81057;BME280;70563;50.084;14.468;2023-07-29T04:24:43;98169.03;;;18.40;76.68
81057;BME280;70563;50.084;14.468;2023-07-29T04:27:08;98166.03;;;18.37;76.72
81057;BME280;70563;50.084;14.468;2023-07-29T04:29:33;98165.72;;;18.33;77.15
81057;BME280;70563;50.084;14.468;2023-07-29T04:32:01;98165.41;;;18.29;77.40
81057;BME280;70563;50.084;14.468;2023-07-29T04:34:26;98177.06;;;18.23;77.79
81057;BME280;70563;50.084;14.468;2023-07-29T04:36:52;98174.78;;;18.32;77.28
81057;BME280;70563;50.084;14.468;2023-07-29T04:39:17;98167.22;;;18.46;76.63
81057;BME280;70563;50.084;14.468;2023-07-29T04:41:43;98181.03;;;18.60;76.15
81057;BME280;70563;50.084;14.468;2023-07-29T04:44:08;98183.16;;;18.74;75.58
81057;BME280;70563;50.084;14.468;2023-07-29T04:46:36;98186.50;;;18.87;74.67
81057;BME280;70563;50.084;14.468;2023-07-29T04:49:02;98187.31;;;19.09;73.98
81057;BME280;70563;50.084;14.468;2023-07-29T04:51:28;98181.44;;;19.12;73.86
81057;BME280;70563;50.084;14.468;2023-07-29T04:53:53;98182.88;;;19.20;73.34
81057;BME280;70563;50.084;14.468;2023-07-29T04:56:19;98188.06;;;19.26;72.81
81057;BME280;70563;50.084;14.468;2023-07-29T04:58:44;98180.34;;;19.30;72.78
81057;BME280;70563;50.084;14.468;2023-07-29T05:01:09;98190.56;;;19.38;72.57
81057;BME280;70563;50.084;14.468;2023-07-29T05:03:35;98187.84;;;19.33;72.42
81057;BME280;70563;50.084;14.468;2023-07-29T05:06:02;98180.06;;;19.32;72.52
81057;BME280;70563;50.084;14.468;2023-07-29T05:08:28;98188.09;;;19.32;72.72
81057;BME280;70563;50.084;14.468;2023-07-29T05:10:53;98186.03;;;19.39;72.00
81057;BME280;70563;50.084;14.468;2023-07-29T05:13:20;98193.34;;;19.70;71.26
81057;BME280;70563;50.084;14.468;2023-07-29T05:15:47;98196.81;;;19.71;71.19
81057;BME280;70563;50.084;14.468;2023-07-29T05:18:12;98199.06;;;19.57;71.65
81057;BME280;70563;50.084;14.468;2023-07-29T05:20:38;98197.84;;;19.65;71.44
81057;BME280;70563;50.084;14.468;2023-07-29T05:23:03;98189.88;;;19.75;70.85
81057;BME280;70563;50.084;14.468;2023-07-29T05:25:29;98189.53;;;19.66;71.60
81057;BME280;70563;50.084;14.468;2023-07-29T05:27:54;98191.75;;;19.74;70.88
81057;BME280;70563;50.084;14.468;2023-07-29T05:30:19;98189.94;;;19.80;70.75
81057;BME280;70563;50.084;14.468;2023-07-29T05:32:45;98191.19;;;19.72;71.26
81057;BME280;70563;50.084;14.468;2023-07-29T05:35:10;98188.47;;;19.67;70.99
81057;BME280;70563;50.084;14.468;2023-07-29T05:37:39;98192.22;;;19.66;71.28
81057;BME280;70563;50.084;14.468;2023-07-29T05:40:08;98188.34;;;19.57;71.69
81057;BME280;70563;50.084;14.468;2023-07-29T05:42:34;98188.94;;;19.86;70.66
81057;BME280;70563;50.084;14.468;2023-07-29T05:45:00;98186.38;;;19.69;71.13
81057;BME280;70563;50.084;14.468;2023-07-29T05:47:26;98179.63;;;19.67;71.38
81057;BME280;70563;50.084;14.468;2023-07-29T05:49:52;98186.44;;;19.79;71.15
81057;BME280;70563;50.084;14.468;2023-07-29T05:52:17;98182.88;;;20.38;69.09
81057;BME280;70563;50.084;14.468;2023-07-29T05:54:42;98188.31;;;21.11;66.20
81057;BME280;70563;50.084;14.468;2023-07-29T05:57:12;98181.50;;;21.87;63.31
81057;BME280;70563;50.084;14.468;2023-07-29T05:59:38;98171.56;;;22.23;62.37
81057;BME280;70563;50.084;14.468;2023-07-29T06:02:04;98181.44;;;23.77;57.72
81057;BME280;70563;50.084;14.468;2023-07-29T06:04:29;98187.31;;;23.85;56.38
81057;BME280;70563;50.084;14.468;2023-07-29T06:06:55;98180.00;;;24.19;55.51
81057;BME280;70563;50.084;14.468;2023-07-29T06:09:23;98179.91;;;23.66;56.83
81057;BME280;70563;50.084;14.468;2023-07-29T06:11:50;98175.81;;;23.24;57.92
81057;BME280;70563;50.084;14.468;2023-07-29T06:14:16;98177.94;;;23.33;57.79
81057;BME280;70563;50.084;14.468;2023-07-29T06:16:41;98179.06;;;23.66;56.89
81057;BME280;70563;50.084;14.468;2023-07-29T06:19:07;98174.53;;;23.56;55.75
81057;BME280;70563;50.084;14.468;2023-07-29T06:21:34;98176.50;;;25.39;50.27
81057;BME280;70563;50.084;14.468;2023-07-29T06:23:59;98167.19;;;26.62;46.72
81057;BME280;70563;50.084;14.468;2023-07-29T06:26:25;98169.78;;;27.81;43.45
81057;BME280;70563;50.084;14.468;2023-07-29T06:28:50;98174.59;;;28.29;42.11
81057;BME280;70563;50.084;14.468;2023-07-29T06:31:15;98161.91;;;25.40;48.55
81057;BME280;70563;50.084;14.468;2023-07-29T06:33:41;98164.81;;;26.27;46.62
81057;BME280;70563;50.084;14.468;2023-07-29T06:36:06;98157.25;;;27.12;44.68
81057;BME280;70563;50.084;14.468;2023-07-29T06:38:31;98163.91;;;27.79;43.41
81057;BME280;70563;50.084;14.468;2023-07-29T06:40:57;98164.28;;;28.88;40.80
81057;BME280;70563;50.084;14.468;2023-07-29T06:43:22;98165.19;;;29.32;39.72
81057;BME280;70563;50.084;14.468;2023-07-29T06:45:48;98153.34;;;29.10;39.93
81057;BME280;70563;50.084;14.468;2023-07-29T06:48:13;98154.81;;;29.77;38.45
81057;BME280;70563;50.084;14.468;2023-07-29T06:50:38;98157.97;;;29.18;40.04
81057;BME280;70563;50.084;14.468;2023-07-29T06:53:04;98154.00;;;29.85;38.55
81057;BME280;70563;50.084;14.468;2023-07-29T06:55:29;98162.28;;;29.02;39.36
81057;BME280;70563;50.084;14.468;2023-07-29T06:57:54;98161.03;;;29.34;39.33
81057;BME280;70563;50.084;14.468;2023-07-29T07:00:20;98169.84;;;29.40;38.89
81057;BME280;70563;50.084;14.468;2023-07-29T07:02:45;98172.28;;;27.91;42.83
81057;BME280;70563;50.084;14.468;2023-07-29T07:05:10;98166.47;;;27.84;42.75
81057;BME280;70563;50.084;14.468;2023-07-29T07:07:36;98171.56;;;27.77;42.67
81057;BME280;70563;50.084;14.468;2023-07-29T07:10:03;98161.25;;;26.46;45.55
81057;BME280;70563;50.084;14.468;2023-07-29T07:12:28;98173.22;;;25.23;48.43
81057;BME280;70563;50.084;14.468;2023-07-29T07:14:53;98161.00;;;24.29;50.92
81057;BME280;70563;50.084;14.468;2023-07-29T07:17:19;98169.97;;;23.57;53.34
81057;BME280;70563;50.084;14.468;2023-07-29T07:19:44;98174.00;;;23.59;54.10
81057;BME280;70563;50.084;14.468;2023-07-29T07:22:11;98165.66;;;23.95;53.45
81057;BME280;70563;50.084;14.468;2023-07-29T07:24:36;98153.88;;;24.92;50.52
81057;BME280;70563;50.084;14.468;2023-07-29T07:27:02;98158.09;;;24.98;50.19
81057;BME280;70563;50.084;14.468;2023-07-29T07:29:28;98154.00;;;25.24;48.95
81057;BME280;70563;50.084;14.468;2023-07-29T07:31:54;98147.34;;;25.17;49.24
81057;BME280;70563;50.084;14.468;2023-07-29T07:34:20;98154.41;;;25.13;49.29
81057;BME280;70563;50.084;14.468;2023-07-29T07:36:46;98145.97;;;24.95;49.91
81057;BME280;70563;50.084;14.468;2023-07-29T07:39:11;98145.88;;;25.06;50.10
81057;BME280;70563;50.084;14.468;2023-07-29T07:41:37;98139.56;;;27.15;44.65
81057;BME280;70563;50.084;14.468;2023-07-29T07:44:02;98153.94;;;27.96;42.41
81057;BME280;70563;50.084;14.468;2023-07-29T07:46:28;98137.41;;;26.62;45.66
81057;BME280;70563;50.084;14.468;2023-07-29T07:48:54;98147.38;;;26.20;46.86
81057;BME280;70563;50.084;14.468;2023-07-29T07:51:19;98135.31;;;25.09;49.59
81057;BME280;70563;50.084;14.468;2023-07-29T07:53:45;98141.34;;;24.00;52.91
81057;BME280;70563;50.084;14.468;2023-07-29T07:56:10;98133.75;;;23.34;54.69
81057;BME280;70563;50.084;14.468;2023-07-29T07:58:35;98126.19;;;23.36;54.45
81057;BME280;70563;50.084;14.468;2023-07-29T08:01:04;98115.34;;;24.09;52.59
81057;BME280;70563;50.084;14.468;2023-07-29T08:03:31;98115.75;;;24.50;51.31
81057;BME280;70563;50.084;14.468;2023-07-29T08:05:57;98108.03;;;25.95;47.87
81057;BME280;70563;50.084;14.468;2023-07-29T08:08:22;98111.56;;;26.56;46.27
81057;BME280;70563;50.084;14.468;2023-07-29T08:10:47;98121.03;;;26.81;45.51
81057;BME280;70563;50.084;14.468;2023-07-29T08:13:13;98115.59;;;29.09;39.55
81057;BME280;70563;50.084;14.468;2023-07-29T08:15:38;98114.97;;;28.23;41.02
81057;BME280;70563;50.084;14.468;2023-07-29T08:18:04;98114.38;;;30.14;37.05
81057;BME280;70563;50.084;14.468;2023-07-29T08:20:29;98107.31;;;29.57;38.11
81057;BME280;70563;50.084;14.468;2023-07-29T08:22:54;98106.25;;;30.05;36.65
81057;BME280;70563;50.084;14.468;2023-07-29T08:25:20;98100.44;;;31.13;33.94
81057;BME280;70563;50.084;14.468;2023-07-29T08:27:45;98101.38;;;29.38;37.19
81057;BME280;70563;50.084;14.468;2023-07-29T08:30:11;98100.31;;;28.64;39.16
81057;BME280;70563;50.084;14.468;2023-07-29T08:32:36;98111.16;;;27.48;42.61
81057;BME280;70563;50.084;14.468;2023-07-29T08:35:01;98109.13;;;27.54;41.60
81057;BME280;70563;50.084;14.468;2023-07-29T08:37:27;98104.91;;;28.15;40.95
81057;BME280;70563;50.084;14.468;2023-07-29T08:39:52;98109.50;;;27.61;41.30
81057;BME280;70563;50.084;14.468;2023-07-29T08:42:19;98104.94;;;27.48;40.92
81057;BME280;70563;50.084;14.468;2023-07-29T08:44:45;98102.81;;;28.12;39.28
81057;BME280;70563;50.084;14.468;2023-07-29T08:47:12;98100.75;;;28.49;38.36
81057;BME280;70563;50.084;14.468;2023-07-29T08:49:41;98098.84;;;29.33;36.70
81057;BME280;70563;50.084;14.468;2023-07-29T08:52:07;98103.97;;;30.63;34.42
81057;BME280;70563;50.084;14.468;2023-07-29T08:54:33;98105.63;;;31.47;32.47
81057;BME280;70563;50.084;14.468;2023-07-29T08:56:59;98101.81;;;30.39;34.26
81057;BME280;70563;50.084;14.468;2023-07-29T08:59:25;98105.72;;;31.39;32.66
81057;BME280;70563;50.084;14.468;2023-07-29T09:01:51;98109.34;;;29.86;35.76
81057;BME280;70563;50.084;14.468;2023-07-29T09:04:20;98120.50;;;28.89;37.84
81057;BME280;70563;50.084;14.468;2023-07-29T09:06:47;98110.84;;;27.50;41.20
81057;BME280;70563;50.084;14.468;2023-07-29T09:09:14;98111.47;;;27.69;40.79
81057;BME280;70563;50.084;14.468;2023-07-29T09:11:39;98109.13;;;26.54;43.44
81057;BME280;70563;50.084;14.468;2023-07-29T09:14:04;98102.81;;;27.22;41.73
81057;BME280;70563;50.084;14.468;2023-07-29T09:16:30;98105.72;;;26.48;44.00
81057;BME280;70563;50.084;14.468;2023-07-29T09:18:55;98108.03;;;25.95;44.81
81057;BME280;70563;50.084;14.468;2023-07-29T09:21:25;98104.66;;;25.70;45.89
81057;BME280;70563;50.084;14.468;2023-07-29T09:23:52;98094.34;;;25.72;45.67
81057;BME280;70563;50.084;14.468;2023-07-29T09:26:27;98101.56;;;27.87;41.25
81057;BME280;70563;50.084;14.468;2023-07-29T09:28:55;98104.72;;;29.69;37.00
81057;BME280;70563;50.084;14.468;2023-07-29T09:31:22;98106.78;;;31.80;32.57
81057;BME280;70563;50.084;14.468;2023-07-29T09:33:48;98103.41;;;31.83;31.88
81057;BME280;70563;50.084;14.468;2023-07-29T09:36:13;98101.94;;;34.99;27.14
81057;BME280;70563;50.084;14.468;2023-07-29T09:38:39;98116.44;;;36.65;24.60
81057;BME280;70563;50.084;14.468;2023-07-29T09:41:05;98105.25;;;37.04;23.57
81057;BME280;70563;50.084;14.468;2023-07-29T09:43:32;98102.09;;;36.76;23.69
81057;BME280;70563;50.084;14.468;2023-07-29T09:46:01;98105.31;;;32.28;30.43
81057;BME280;70563;50.084;14.468;2023-07-29T09:48:27;98101.19;;;30.42;33.56
81057;BME280;70563;50.084;14.468;2023-07-29T09:50:55;98095.72;;;33.19;28.67
81057;BME280;70563;50.084;14.468;2023-07-29T09:53:21;98103.53;;;30.05;34.18
81057;BME280;70563;50.084;14.468;2023-07-29T09:55:47;98090.47;;;31.17;32.09
81057;BME280;70563;50.084;14.468;2023-07-29T09:58:26;98105.19;;;29.89;34.69
81057;BME280;70563;50.084;14.468;2023-07-29T10:00:51;98102.41;;;28.67;37.59
81057;BME280;70563;50.084;14.468;2023-07-29T10:03:19;98098.13;;;28.92;37.44
81057;BME280;70563;50.084;14.468;2023-07-29T10:05:46;98091.31;;;31.71;32.40
81057;BME280;70563;50.084;14.468;2023-07-29T10:08:12;98116.91;;;30.75;33.10
81057;BME280;70563;50.084;14.468;2023-07-29T10:10:39;98102.09;;;28.78;37.11
81057;BME280;70563;50.084;14.468;2023-07-29T10:13:04;98105.00;;;28.81;36.91
81057;BME280;70563;50.084;14.468;2023-07-29T10:15:31;98096.78;;;27.93;38.06
81057;BME280;70563;50.084;14.468;2023-07-29T10:17:57;98088.59;;;28.38;37.53
81057;BME280;70563;50.084;14.468;2023-07-29T10:20:23;98082.34;;;28.06;37.70
81057;BME280;70563;50.084;14.468;2023-07-29T10:22:48;98082.91;;;32.59;30.10
81057;BME280;70563;50.084;14.468;2023-07-29T10:25:22;98084.56;;;32.02;29.78
81057;BME280;70563;50.084;14.468;2023-07-29T10:27:49;98073.38;;;31.83;30.89
81057;BME280;70563;50.084;14.468;2023-07-29T10:30:16;98079.59;;;31.71;31.22
81057;BME280;70563;50.084;14.468;2023-07-29T10:32:43;98078.56;;;31.76;30.80
81057;BME280;70563;50.084;14.468;2023-07-29T10:35:10;98060.50;;;29.90;34.39
81057;BME280;70563;50.084;14.468;2023-07-29T10:37:36;98063.78;;;28.96;35.91
81057;BME280;70563;50.084;14.468;2023-07-29T10:40:06;98065.81;;;28.65;37.18
81057;BME280;70563;50.084;14.468;2023-07-29T10:42:32;98058.31;;;29.74;35.04
81057;BME280;70563;50.084;14.468;2023-07-29T10:44:57;98052.91;;;29.22;36.23
81057;BME280;70563;50.084;14.468;2023-07-29T10:47:27;98060.44;;;29.34;35.79
81057;BME280;70563;50.084;14.468;2023-07-29T10:49:57;98048.91;;;28.85;36.45
81057;BME280;70563;50.084;14.468;2023-07-29T10:55:02;98034.69;;;29.14;35.99
81057;BME280;70563;50.084;14.468;2023-07-29T10:57:38;98043.88;;;28.44;36.93
81057;BME280;70563;50.084;14.468;2023-07-29T11:00:06;98053.53;;;26.84;40.75
81057;BME280;70563;50.084;14.468;2023-07-29T11:02:35;98039.06;;;26.39;41.86
81057;BME280;70563;50.084;14.468;2023-07-29T11:05:06;98027.72;;;26.23;42.39
81057;BME280;70563;50.084;14.468;2023-07-29T11:07:43;98031.41;;;25.86;43.50
81057;BME280;70563;50.084;14.468;2023-07-29T11:10:09;98017.47;;;25.46;44.27
81057;BME280;70563;50.084;14.468;2023-07-29T11:17:32;98048.34;;;24.88;46.44
81057;BME280;70563;50.084;14.468;2023-07-29T11:20:00;98088.03;;;23.18;54.82
81057;BME280;70563;50.084;14.468;2023-07-29T11:22:25;98096.28;;;21.92;61.94
81057;BME280;70563;50.084;14.468;2023-07-29T11:24:51;98106.78;;;21.33;63.74
81057;BME280;70563;50.084;14.468;2023-07-29T11:27:16;98119.78;;;20.78;67.25
81057;BME280;70563;50.084;14.468;2023-07-29T11:29:41;98122.41;;;20.20;70.04
81057;BME280;70563;50.084;14.468;2023-07-29T11:32:07;98104.91;;;19.65;72.26
81057;BME280;70563;50.084;14.468;2023-07-29T11:34:34;98110.38;;;19.21;76.72
81057;BME280;70563;50.084;14.468;2023-07-29T11:37:00;98109.00;;;18.92;78.76
81057;BME280;70563;50.084;14.468;2023-07-29T11:39:25;98107.31;;;18.64;78.52
81057;BME280;70563;50.084;14.468;2023-07-29T11:41:50;98105.25;;;18.49;80.29
81057;BME280;70563;50.084;14.468;2023-07-29T11:44:18;98109.97;;;18.42;80.11
81057;BME280;70563;50.084;14.468;2023-07-29T11:46:44;98106.50;;;18.41;80.94
81057;BME280;70563;50.084;14.468;2023-07-29T11:49:10;98105.31;;;18.32;81.60
81057;BME280;70563;50.084;14.468;2023-07-29T11:51:36;98089.00;;;18.34;83.41
81057;BME280;70563;50.084;14.468;2023-07-29T11:54:02;98091.09;;;18.26;84.82
81057;BME280;70563;50.084;14.468;2023-07-29T11:56:29;98086.44;;;18.22;84.66
81057;BME280;70563;50.084;14.468;2023-07-29T11:58:55;98090.50;;;18.24;86.33
81057;BME280;70563;50.084;14.468;2023-07-29T12:01:22;98096.72;;;18.30;85.28
81057;BME280;70563;50.084;14.468;2023-07-29T12:03:49;98072.88;;;18.23;86.79
81057;BME280;70563;50.084;14.468;2023-07-29T12:06:15;98074.72;;;18.23;87.02
81057;BME280;70563;50.084;14.468;2023-07-29T12:08:41;98065.06;;;18.22;84.93
81057;BME280;70563;50.084;14.468;2023-07-29T12:11:08;98073.41;;;18.25;83.62
81057;BME280;70563;50.084;14.468;2023-07-29T12:13:36;98078.81;;;18.30;83.98
81057;BME280;70563;50.084;14.468;2023-07-29T12:16:02;98082.00;;;18.27;82.88
81057;BME280;70563;50.084;14.468;2023-07-29T12:18:32;98081.63;;;18.41;82.17
81057;BME280;70563;50.084;14.468;2023-07-29T12:20:57;98066.47;;;18.46;81.56
81057;BME280;70563;50.084;14.468;2023-07-29T12:23:26;98066.66;;;18.40;80.82
81057;BME280;70563;50.084;14.468;2023-07-29T12:25:57;98071.25;;;18.44;81.07
81057;BME280;70563;50.084;14.468;2023-07-29T12:28:23;98070.38;;;18.39;81.20
81057;BME280;70563;50.084;14.468;2023-07-29T12:30:53;98073.78;;;18.56;82.03
81057;BME280;70563;50.084;14.468;2023-07-29T12:33:31;98068.97;;;18.75;81.10
81057;BME280;70563;50.084;14.468;2023-07-29T12:35:57;98063.56;;;18.97;80.15
81057;BME280;70563;50.084;14.468;2023-07-29T12:38:23;98059.22;;;19.18;78.24
81057;BME280;70563;50.084;14.468;2023-07-29T12:40:48;98050.13;;;19.51;77.33
81057;BME280;70563;50.084;14.468;2023-07-29T12:43:13;98061.91;;;19.82;74.83
81057;BME280;70563;50.084;14.468;2023-07-29T12:45:39;98058.19;;;20.41;74.55
81057;BME280;70563;50.084;14.468;2023-07-29T12:48:10;98062.84;;;20.61;73.00
81057;BME280;70563;50.084;14.468;2023-07-29T12:50:39;98059.91;;;20.67;72.51
81057;BME280;70563;50.084;14.468;2023-07-29T12:53:06;98061.00;;;20.66;71.90
81057;BME280;70563;50.084;14.468;2023-07-29T12:55:31;98047.94;;;21.00;70.65
81057;BME280;70563;50.084;14.468;2023-07-29T12:57:57;98057.34;;;21.28;70.35
81057;BME280;70563;50.084;14.468;2023-07-29T13:00:26;98044.72;;;21.75;68.09